Jane A. Bouchard — WDB4391 — position and weather

sailwx.info

Track history (hours):
 
Tides and Currents Weather Stations Pressure Air Temp Water Temp Dewpoint Dewpoint Depression Visibility Wind Speed Wind Dir Waves Ship Positions

Jane A. Bouchard

Owner: TUG JANE A BOUCHARD, MELVILLE, NY. More information available from US FCC via Universal Licensing System and Coast Guard Vessel Documentation Center.

Last reported at 2018-May-20 13:28 UTC. Time now 2018-May-20 13:30 UTC.
Position N 42°24' W 071°01'.

Length 163 m; draft 7 m.

Type: Towing. MMSI: 366897920.

Date/timePositionNaut miles runAvg speedWind from/ knotsBaromVisibWave heightAir tempDewpointWater temp
2018-May-20 13:28N 42°24' W 071°01'0 0.0
2018-May-20 12:59N 42°24' W 071°01'0 0.0
2018-May-20 12:28N 42°24' W 071°01'0 0.0
2018-May-20 11:58N 42°24' W 071°01'0 0.0
2018-May-20 11:29N 42°24' W 071°01'0 0.0
2018-May-20 11:00N 42°24' W 071°01'0 0.4
2018-May-20 10:30N 42°24' W 071°01'2 3.4
2018-May-20 10:00N 42°23' W 071°03'3 6.0
2018-May-20 09:30N 42°20' W 071°00'2 4.7
2018-May-20 09:00N 42°20' W 070°57'2 4.2
2018-May-20 08:31N 42°22' W 070°55'3 4.9
2018-May-20 08:00N 42°23' W 070°53'3 5.1
2018-May-20 07:31N 42°25' W 070°50'3 5.3
2018-May-20 07:00N 42°26' W 070°47'3 5.5
2018-May-20 06:31N 42°28' W 070°44'3 6.0
2018-May-20 06:01N 42°30' W 070°41'3 6.2
2018-May-20 05:31N 42°32' W 070°38'3 6.1
2018-May-20 05:01N 42°34' W 070°35'3 6.0
2018-May-20 04:30N 42°36' W 070°32'3 5.8
2018-May-20 04:00N 42°39' W 070°31'3 5.6
2018-May-20 03:30N 42°42' W 070°29'3 6.0
2018-May-20 03:00N 42°45' W 070°28'510.5
2018-May-20 02:30N 42°50' W 070°26'510.5
2018-May-20 02:00N 42°55' W 070°25'510.2
2018-May-20 01:30N 42°60' W 070°24'9 0.5
2018-May-19 06:30N 43°01' W 070°11'510.1
2018-May-19 06:00N 42°57' W 070°14'5 9.9
2018-May-19 05:30N 42°52' W 070°14'510.0
2018-May-19 05:00N 42°47' W 070°16'510.1
2018-May-19 04:30N 42°42' W 070°17'510.1
2018-May-19 04:00N 42°37' W 070°18'510.3
2018-May-19 03:30N 42°32' W 070°19'510.2
2018-May-19 03:00N 42°27' W 070°20'510.3
2018-May-19 02:30N 42°22' W 070°21'610.2
2018-May-19 01:55N 42°16' W 070°22'410.4
2018-May-19 01:30N 42°11' W 070°23'510.5
2018-May-19 01:00N 42°06' W 070°25'510.4
2018-May-19 00:30N 42°01' W 070°26'510.6
2018-May-18 23:59N 41°56' W 070°27'510.7
2018-May-18 23:30N 41°51' W 070°27'16 8.3
2018-May-18 21:37N 41°39' W 070°41'4 9.9
2018-May-18 21:12N 41°35' W 070°43'152 7.9
2018-May-18 02:02N 40°29' W 073°44'310.0
2018-May-18 01:46N 40°29' W 073°48'5 9.6
2018-May-18 01:17N 40°29' W 073°54'3 9.3
2018-May-18 01:00N 40°30' W 073°57'4 8.2
2018-May-18 00:30N 40°32' W 074°01'4 8.9
2018-May-18 00:00N 40°37' W 074°03'3 6.8
2018-May-17 23:30N 40°39' W 074°06'4 7.3
2018-May-17 23:00N 40°39' W 074°11'1 0.6
2018-May-17 21:21N 40°38' W 074°12'3 8.4
2018-May-17 21:00N 40°39' W 074°08'2 3.6
2018-May-17 20:28N 40°39' W 074°06'0 0.0
2018-May-17 19:58N 40°39' W 074°06'0 0.0
2018-May-17 19:28N 40°39' W 074°06'0 0.0
2018-May-17 18:58N 40°39' W 074°06'0 0.0
2018-May-17 18:28N 40°39' W 074°06'0 0.0
2018-May-17 17:58N 40°39' W 074°06'0 0.0
2018-May-17 17:28N 40°39' W 074°06'0 0.0
2018-May-17 16:58N 40°39' W 074°06'0 0.0
2018-May-17 16:28N 40°39' W 074°06'0 0.0
2018-May-17 15:58N 40°39' W 074°06'0 0.0
2018-May-17 15:30N 40°39' W 074°06'0 0.7
2018-May-17 15:00N 40°39' W 074°05'0 0.0
2018-May-17 14:24N 40°39' W 074°05'0 0.0
2018-May-17 14:00N 40°39' W 074°05'0 0.0
2018-May-17 13:24N 40°39' W 074°05'1 2.5
2018-May-17 13:00N 40°39' W 074°07'0 0.7
2018-May-17 12:30N 40°39' W 074°07'0 0.0
2018-May-17 12:00N 40°39' W 074°07'0 0.0
2018-May-17 11:24N 40°39' W 074°07'0 0.0
2018-May-17 10:58N 40°39' W 074°07'0 0.0
2018-May-17 09:39N 40°39' W 074°07'0 0.0
2018-May-17 09:30N 40°39' W 074°07'0 0.0
2018-May-17 08:57N 40°39' W 074°07'0 0.0
2018-May-17 08:15N 40°39' W 074°07'0 0.0
2018-May-17 08:00N 40°39' W 074°07'0 0.0
2018-May-17 07:15N 40°39' W 074°07'1 4.2
2018-May-17 07:00N 40°39' W 074°09'3 1.8
2018-May-17 05:32N 40°38' W 074°12'0 3.5
2018-May-17 05:26N 40°38' W 074°12'3 5.7
2018-May-17 05:00N 40°39' W 074°08'1 2.3
2018-May-17 04:30N 40°39' W 074°07'2 4.7
2018-May-17 04:00N 40°39' W 074°04'4 5.9
2018-May-17 03:24N 40°36' W 074°01'0 0.1
2018-May-17 02:49N 40°36' W 074°02'0 0.0
2018-May-17 02:28N 40°36' W 074°02'0 0.0
2018-May-17 00:22N 40°36' W 074°01'0 0.0
2018-May-16 23:37N 40°36' W 074°01'0 0.1
2018-May-16 23:28N 40°36' W 074°01'0 0.0
2018-May-16 22:58N 40°36' W 074°01'0 0.0
2018-May-16 22:13N 40°36' W 074°02'0 0.0
2018-May-16 21:58N 40°36' W 074°02'0 0.1
2018-May-16 21:28N 40°36' W 074°01'0 0.1
2018-May-16 19:58N 40°36' W 074°02'0 0.1
2018-May-16 19:22N 40°36' W 074°01'0 0.0
2018-May-16 18:58N 40°36' W 074°01'1 1.3
2018-May-16 18:30N 40°35' W 074°02'4 7.9
2018-May-16 18:00N 40°31' W 074°02'9 0.4
2018-May-15 16:39N 40°37' W 074°12'2 9.2
2018-May-15 16:28N 40°38' W 074°12'3 7.5
2018-May-15 16:00N 40°39' W 074°07'0 0.2
2018-May-15 15:30N 40°39' W 074°07'0 0.0
2018-May-15 15:00N 40°39' W 074°07'0 0.0
2018-May-15 14:30N 40°39' W 074°07'0 0.0
2018-May-15 13:57N 40°39' W 074°07'0 0.0
2018-May-15 13:24N 40°39' W 074°07'0 0.0
2018-May-15 13:00N 40°39' W 074°07'0 0.0
2018-May-15 12:30N 40°39' W 074°07'0 0.0
2018-May-15 12:00N 40°39' W 074°07'0 0.0
2018-May-15 11:27N 40°39' W 074°07'0 0.0
2018-May-15 11:00N 40°39' W 074°07'0 0.0
2018-May-15 10:30N 40°39' W 074°07'0 0.0
2018-May-15 10:00N 40°39' W 074°07'0 0.0
2018-May-15 09:30N 40°39' W 074°07'0 0.0
2018-May-15 09:00N 40°39' W 074°07'0 0.0
2018-May-15 08:30N 40°39' W 074°07'1 2.7
2018-May-15 08:00N 40°39' W 074°09'4 3.2
2018-May-15 06:53N 40°36' W 074°12'2 2.1
2018-May-15 06:07N 40°37' W 074°12'1 7.6
2018-May-15 05:58N 40°38' W 074°12'3 6.2
2018-May-15 05:30N 40°39' W 074°08'3 5.3
2018-May-15 05:00N 40°39' W 074°04'2 4.7
2018-May-15 04:30N 40°37' W 074°03'4 8.3
2018-May-15 04:00N 40°33' W 074°01'4 8.4
2018-May-15 03:30N 40°30' W 073°57'182 9.2
2018-May-14 07:45N 42°04' W 070°30'3 9.7
2018-May-14 07:29N 42°07' W 070°30'5 9.4
2018-May-14 07:00N 42°11' W 070°33'510.6
2018-May-14 06:30N 42°15' W 070°38'611.3
2018-May-14 06:00N 42°19' W 070°43'511.3
2018-May-14 05:30N 42°23' W 070°49'510.2
2018-May-14 05:00N 42°22' W 070°56'5 9.0
2018-May-14 04:30N 42°21' W 071°02'2 3.9
2018-May-14 04:00N 42°23' W 071°02'1 1.4
2018-May-14 03:27N 42°24' W 071°01'1 3.1
2018-May-14 02:59N 42°23' W 071°03'0 0.1
2018-May-14 02:29N 42°23' W 071°03'0 0.0
2018-May-14 01:59N 42°23' W 071°03'0 0.0
2018-May-14 01:29N 42°23' W 071°03'0 0.0
2018-May-14 00:59N 42°23' W 071°03'0 0.0
2018-May-14 00:29N 42°23' W 071°03'0 0.0
2018-May-13 23:59N 42°23' W 071°03'0 0.0
2018-May-13 23:29N 42°23' W 071°03'0 0.0
2018-May-13 22:59N 42°23' W 071°03'0 0.0
2018-May-13 22:29N 42°23' W 071°03'0 0.0
2018-May-13 21:59N 42°23' W 071°03'0 0.0
2018-May-13 21:29N 42°23' W 071°03'0 0.0
2018-May-13 20:59N 42°23' W 071°03'0 0.0
2018-May-13 20:29N 42°23' W 071°03'0 0.0
2018-May-13 19:59N 42°23' W 071°03'0 0.0
2018-May-13 19:29N 42°23' W 071°03'0 0.0
2018-May-13 18:56N 42°23' W 071°03'0 0.0
2018-May-13 18:29N 42°23' W 071°03'0 0.0
2018-May-13 17:59N 42°23' W 071°03'0 0.0
2018-May-13 17:29N 42°23' W 071°03'0 0.0
2018-May-13 16:59N 42°23' W 071°03'0 0.0
2018-May-13 16:29N 42°23' W 071°03'0 0.0
2018-May-13 15:59N 42°23' W 071°03'0 0.0
2018-May-13 15:29N 42°23' W 071°03'0 0.0
2018-May-13 14:59N 42°23' W 071°03'0 0.0
2018-May-13 14:29N 42°23' W 071°03'0 0.0
2018-May-13 13:59N 42°23' W 071°03'0 0.0
2018-May-13 13:29N 42°23' W 071°03'0 0.0
2018-May-13 12:59N 42°23' W 071°03'0 0.0
2018-May-13 12:29N 42°23' W 071°03'0 0.0
2018-May-13 11:59N 42°23' W 071°03'0 0.0
2018-May-13 11:29N 42°23' W 071°03'0 0.0
2018-May-13 10:59N 42°23' W 071°03'0 0.0
2018-May-13 10:29N 42°23' W 071°03'0 0.0
2018-May-13 09:59N 42°23' W 071°03'0 0.0
2018-May-13 09:29N 42°23' W 071°03'0 0.0
2018-May-13 08:59N 42°23' W 071°03'0 0.0
2018-May-13 08:29N 42°23' W 071°03'0 0.0
2018-May-13 07:59N 42°23' W 071°03'0 0.0
2018-May-13 07:29N 42°23' W 071°03'0 0.0
2018-May-13 06:59N 42°23' W 071°03'0 0.0
2018-May-13 06:29N 42°23' W 071°03'0 0.0
2018-May-13 05:59N 42°23' W 071°03'0 0.0
2018-May-13 05:29N 42°23' W 071°03'0 0.0
2018-May-13 04:59N 42°23' W 071°03'0 0.0
2018-May-13 04:29N 42°23' W 071°03'0 0.0
2018-May-13 03:59N 42°23' W 071°03'0 0.0
2018-May-13 03:29N 42°23' W 071°03'0 0.0
2018-May-13 02:59N 42°23' W 071°03'0 0.0
2018-May-13 02:29N 42°23' W 071°03'0 0.0
2018-May-13 01:59N 42°23' W 071°03'0 0.0
2018-May-13 01:29N 42°23' W 071°03'0 0.0
2018-May-13 00:59N 42°23' W 071°03'0 0.0
2018-May-13 00:29N 42°23' W 071°03'0 0.0
2018-May-12 23:59N 42°23' W 071°03'0 0.0
2018-May-12 23:29N 42°23' W 071°03'0 0.0
2018-May-12 22:59N 42°23' W 071°03'0 0.0
2018-May-12 22:29N 42°23' W 071°03'0 0.0
2018-May-12 21:59N 42°23' W 071°03'0 0.0
2018-May-12 21:29N 42°23' W 071°03'0 0.0
2018-May-12 20:59N 42°23' W 071°03'0 0.0
2018-May-12 20:29N 42°23' W 071°03'0 0.0
2018-May-12 19:59N 42°23' W 071°03'0 0.0
2018-May-12 19:29N 42°23' W 071°03'0 0.0
2018-May-12 18:59N 42°23' W 071°03'0 0.0
2018-May-12 18:29N 42°23' W 071°03'0 0.0
2018-May-12 17:59N 42°23' W 071°03'0 0.0
2018-May-12 17:29N 42°23' W 071°03'0 0.0
2018-May-12 16:59N 42°23' W 071°03'0 0.0
2018-May-12 16:29N 42°23' W 071°03'0 0.0
2018-May-12 15:59N 42°23' W 071°03'0 0.0
2018-May-12 15:29N 42°23' W 071°03'1 1.2
2018-May-12 15:00N 42°23' W 071°02'1 1.6
2018-May-12 14:29N 42°24' W 071°01'1 1.6
2018-May-12 14:00N 42°23' W 071°02'2 3.5
2018-May-12 13:30N 42°21' W 071°02'4 6.9
2018-May-12 12:59N 42°20' W 070°58'0 0.5
2018-May-12 12:29N 42°20' W 070°58'0 0.0
2018-May-12 11:59N 42°20' W 070°58'0 0.0
2018-May-12 11:29N 42°20' W 070°58'0 0.0
2018-May-12 10:59N 42°20' W 070°58'0 0.0
2018-May-12 10:29N 42°21' W 070°58'0 0.1
2018-May-12 09:59N 42°21' W 070°58'0 0.1
2018-May-12 09:29N 42°21' W 070°58'0 0.1
2018-May-12 08:59N 42°21' W 070°58'0 0.1
2018-May-12 08:29N 42°21' W 070°58'0 0.0
2018-May-12 07:59N 42°21' W 070°58'0 0.1
2018-May-12 07:29N 42°20' W 070°58'0 0.1
2018-May-12 06:59N 42°20' W 070°58'0 0.1
2018-May-12 06:29N 42°20' W 070°58'0 0.0
2018-May-12 05:59N 42°20' W 070°58'0 0.0
2018-May-12 05:29N 42°20' W 070°58'0 0.0
2018-May-12 04:59N 42°20' W 070°58'0 0.0
2018-May-12 04:29N 42°20' W 070°58'0 0.0
2018-May-12 03:59N 42°20' W 070°58'0 0.0
2018-May-12 03:29N 42°20' W 070°58'0 0.0
2018-May-12 02:59N 42°20' W 070°58'0 0.0
2018-May-12 02:29N 42°20' W 070°58'0 0.0
2018-May-12 01:59N 42°20' W 070°58'0 0.0
2018-May-12 01:29N 42°20' W 070°58'0 0.0
2018-May-12 00:59N 42°20' W 070°58'0 0.0
2018-May-12 00:29N 42°20' W 070°58'0 0.1
2018-May-11 23:59N 42°20' W 070°58'0 0.1
2018-May-11 23:29N 42°20' W 070°58'0 0.0
2018-May-11 22:59N 42°20' W 070°58'0 0.2
2018-May-11 22:29N 42°21' W 070°58'0 0.1
2018-May-11 21:59N 42°21' W 070°58'0 0.1
2018-May-11 21:29N 42°21' W 070°58'0 0.0
2018-May-11 20:59N 42°21' W 070°58'0 0.0
2018-May-11 20:29N 42°21' W 070°58'0 0.0
2018-May-11 19:59N 42°21' W 070°58'0 0.0
2018-May-11 19:29N 42°21' W 070°58'0 0.1
2018-May-11 18:59N 42°21' W 070°58'0 0.1
2018-May-11 18:30N 42°21' W 070°58'0 0.1
2018-May-11 18:00N 42°21' W 070°58'0 0.1
2018-May-11 17:29N 42°20' W 070°58'0 0.0
2018-May-11 17:00N 42°20' W 070°58'0 0.0
2018-May-11 16:30N 42°20' W 070°58'0 0.0
2018-May-11 16:00N 42°20' W 070°58'0 0.0
2018-May-11 15:29N 42°20' W 070°58'0 0.0
2018-May-11 15:00N 42°20' W 070°58'0 0.0
2018-May-11 14:29N 42°20' W 070°58'0 0.0
2018-May-11 13:59N 42°20' W 070°58'0 0.0
2018-May-11 13:30N 42°20' W 070°58'0 0.0
2018-May-11 12:59N 42°20' W 070°58'0 0.0
2018-May-11 12:29N 42°20' W 070°58'0 0.0
2018-May-11 11:59N 42°20' W 070°58'0 0.1
2018-May-11 11:29N 42°20' W 070°58'0 0.2
2018-May-11 10:59N 42°21' W 070°58'0 1.0
2018-May-11 10:30N 42°20' W 070°57'4 8.8
2018-May-11 10:00N 42°23' W 070°53'510.6
2018-May-11 09:30N 42°21' W 070°46'510.6
2018-May-11 09:00N 42°18' W 070°41'510.6
2018-May-11 08:30N 42°14' W 070°36'5 9.9
2018-May-11 08:00N 42°10' W 070°32'5 9.6
2018-May-11 07:30N 42°05' W 070°30'89 8.0
2018-May-10 20:18N 41°14' W 072°08'3 9.7
2018-May-10 20:00N 41°14' W 072°12'5 9.9
2018-May-10 19:30N 41°13' W 072°18'5 9.7
2018-May-10 19:00N 41°11' W 072°24'510.1
2018-May-10 18:30N 41°10' W 072°31'510.9
2018-May-10 18:00N 41°11' W 072°38'610.9
2018-May-10 17:29N 41°12' W 072°46'  
Track history (hours):
 
Tides and Currents Weather Stations Pressure Air Temp Water Temp Dewpoint Dewpoint Depression Visibility Wind Speed Wind Dir Waves Ship Positions

Jane A. Bouchard

Owner: TUG JANE A BOUCHARD, MELVILLE, NY. More information available from US FCC via Universal Licensing System and Coast Guard Vessel Documentation Center.

Last reported at 2018-May-20 13:28 UTC. Time now 2018-May-20 13:30 UTC.
Position N 42°24' W 071°01'.

Length 163 m; draft 7 m.

Type: Towing. MMSI: 366897920.

Date/timePositionNaut miles runAvg speedWind from/ knotsBaromVisibWave heightAir tempDewpointWater temp
2018-May-20 13:28N 42°24' W 071°01'0 0.0
2018-May-20 12:59N 42°24' W 071°01'0 0.0
2018-May-20 12:28N 42°24' W 071°01'0 0.0
2018-May-20 11:58N 42°24' W 071°01'0 0.0
2018-May-20 11:29N 42°24' W 071°01'0 0.0
2018-May-20 11:00N 42°24' W 071°01'0 0.4
2018-May-20 10:30N 42°24' W 071°01'2 3.4
2018-May-20 10:00N 42°23' W 071°03'3 6.0
2018-May-20 09:30N 42°20' W 071°00'2 4.7
2018-May-20 09:00N 42°20' W 070°57'2 4.2
2018-May-20 08:31N 42°22' W 070°55'3 4.9
2018-May-20 08:00N 42°23' W 070°53'3 5.1
2018-May-20 07:31N 42°25' W 070°50'3 5.3
2018-May-20 07:00N 42°26' W 070°47'3 5.5
2018-May-20 06:31N 42°28' W 070°44'3 6.0
2018-May-20 06:01N 42°30' W 070°41'3 6.2
2018-May-20 05:31N 42°32' W 070°38'3 6.1
2018-May-20 05:01N 42°34' W 070°35'3 6.0
2018-May-20 04:30N 42°36' W 070°32'3 5.8
2018-May-20 04:00N 42°39' W 070°31'3 5.6
2018-May-20 03:30N 42°42' W 070°29'3 6.0
2018-May-20 03:00N 42°45' W 070°28'510.5
2018-May-20 02:30N 42°50' W 070°26'510.5
2018-May-20 02:00N 42°55' W 070°25'510.2
2018-May-20 01:30N 42°60' W 070°24'9 0.5
2018-May-19 06:30N 43°01' W 070°11'510.1
2018-May-19 06:00N 42°57' W 070°14'5 9.9
2018-May-19 05:30N 42°52' W 070°14'510.0
2018-May-19 05:00N 42°47' W 070°16'510.1
2018-May-19 04:30N 42°42' W 070°17'510.1
2018-May-19 04:00N 42°37' W 070°18'510.3
2018-May-19 03:30N 42°32' W 070°19'510.2
2018-May-19 03:00N 42°27' W 070°20'510.3
2018-May-19 02:30N 42°22' W 070°21'610.2
2018-May-19 01:55N 42°16' W 070°22'410.4
2018-May-19 01:30N 42°11' W 070°23'510.5
2018-May-19 01:00N 42°06' W 070°25'510.4
2018-May-19 00:30N 42°01' W 070°26'510.6
2018-May-18 23:59N 41°56' W 070°27'510.7
2018-May-18 23:30N 41°51' W 070°27'16 8.3
2018-May-18 21:37N 41°39' W 070°41'4 9.9
2018-May-18 21:12N 41°35' W 070°43'152 7.9
2018-May-18 02:02N 40°29' W 073°44'310.0
2018-May-18 01:46N 40°29' W 073°48'5 9.6
2018-May-18 01:17N 40°29' W 073°54'3 9.3
2018-May-18 01:00N 40°30' W 073°57'4 8.2
2018-May-18 00:30N 40°32' W 074°01'4 8.9
2018-May-18 00:00N 40°37' W 074°03'3 6.8
2018-May-17 23:30N 40°39' W 074°06'4 7.3
2018-May-17 23:00N 40°39' W 074°11'1 0.6
2018-May-17 21:21N 40°38' W 074°12'3 8.4
2018-May-17 21:00N 40°39' W 074°08'2 3.6
2018-May-17 20:28N 40°39' W 074°06'0 0.0
2018-May-17 19:58N 40°39' W 074°06'0 0.0
2018-May-17 19:28N 40°39' W 074°06'0 0.0
2018-May-17 18:58N 40°39' W 074°06'0 0.0
2018-May-17 18:28N 40°39' W 074°06'0 0.0
2018-May-17 17:58N 40°39' W 074°06'0 0.0
2018-May-17 17:28N 40°39' W 074°06'0 0.0
2018-May-17 16:58N 40°39' W 074°06'0 0.0
2018-May-17 16:28N 40°39' W 074°06'0 0.0
2018-May-17 15:58N 40°39' W 074°06'0 0.0
2018-May-17 15:30N 40°39' W 074°06'0 0.7
2018-May-17 15:00N 40°39' W 074°05'0 0.0
2018-May-17 14:24N 40°39' W 074°05'0 0.0
2018-May-17 14:00N 40°39' W 074°05'0 0.0
2018-May-17 13:24N 40°39' W 074°05'1 2.5
2018-May-17 13:00N 40°39' W 074°07'0 0.7
2018-May-17 12:30N 40°39' W 074°07'0 0.0
2018-May-17 12:00N 40°39' W 074°07'0 0.0
2018-May-17 11:24N 40°39' W 074°07'0 0.0
2018-May-17 10:58N 40°39' W 074°07'0 0.0
2018-May-17 09:39N 40°39' W 074°07'0 0.0
2018-May-17 09:30N 40°39' W 074°07'0 0.0
2018-May-17 08:57N 40°39' W 074°07'0 0.0
2018-May-17 08:15N 40°39' W 074°07'0 0.0
2018-May-17 08:00N 40°39' W 074°07'0 0.0
2018-May-17 07:15N 40°39' W 074°07'1 4.2
2018-May-17 07:00N 40°39' W 074°09'3 1.8
2018-May-17 05:32N 40°38' W 074°12'0 3.5
2018-May-17 05:26N 40°38' W 074°12'3 5.7
2018-May-17 05:00N 40°39' W 074°08'1 2.3
2018-May-17 04:30N 40°39' W 074°07'2 4.7
2018-May-17 04:00N 40°39' W 074°04'4 5.9
2018-May-17 03:24N 40°36' W 074°01'0 0.1
2018-May-17 02:49N 40°36' W 074°02'0 0.0
2018-May-17 02:28N 40°36' W 074°02'0 0.0
2018-May-17 00:22N 40°36' W 074°01'0 0.0
2018-May-16 23:37N 40°36' W 074°01'0 0.1
2018-May-16 23:28N 40°36' W 074°01'0 0.0
2018-May-16 22:58N 40°36' W 074°01'0 0.0
2018-May-16 22:13N 40°36' W 074°02'0 0.0
2018-May-16 21:58N 40°36' W 074°02'0 0.1
2018-May-16 21:28N 40°36' W 074°01'0 0.1
2018-May-16 19:58N 40°36' W 074°02'0 0.1
2018-May-16 19:22N 40°36' W 074°01'0 0.0
2018-May-16 18:58N 40°36' W 074°01'1 1.3
2018-May-16 18:30N 40°35' W 074°02'4 7.9
2018-May-16 18:00N 40°31' W 074°02'9 0.4
2018-May-15 16:39N 40°37' W 074°12'2 9.2
2018-May-15 16:28N 40°38' W 074°12'3 7.5
2018-May-15 16:00N 40°39' W 074°07'0 0.2
2018-May-15 15:30N 40°39' W 074°07'0 0.0
2018-May-15 15:00N 40°39' W 074°07'0 0.0
2018-May-15 14:30N 40°39' W 074°07'0 0.0
2018-May-15 13:57N 40°39' W 074°07'0 0.0
2018-May-15 13:24N 40°39' W 074°07'0 0.0
2018-May-15 13:00N 40°39' W 074°07'0 0.0
2018-May-15 12:30N 40°39' W 074°07'0 0.0
2018-May-15 12:00N 40°39' W 074°07'0 0.0
2018-May-15 11:27N 40°39' W 074°07'0 0.0
2018-May-15 11:00N 40°39' W 074°07'0 0.0
2018-May-15 10:30N 40°39' W 074°07'0 0.0
2018-May-15 10:00N 40°39' W 074°07'0 0.0
2018-May-15 09:30N 40°39' W 074°07'0 0.0
2018-May-15 09:00N 40°39' W 074°07'0 0.0
2018-May-15 08:30N 40°39' W 074°07'1 2.7
2018-May-15 08:00N 40°39' W 074°09'4 3.2
2018-May-15 06:53N 40°36' W 074°12'2 2.1
2018-May-15 06:07N 40°37' W 074°12'1 7.6
2018-May-15 05:58N 40°38' W 074°12'3 6.2
2018-May-15 05:30N 40°39' W 074°08'3 5.3
2018-May-15 05:00N 40°39' W 074°04'2 4.7
2018-May-15 04:30N 40°37' W 074°03'4 8.3
2018-May-15 04:00N 40°33' W 074°01'4 8.4
2018-May-15 03:30N 40°30' W 073°57'182 9.2
2018-May-14 07:45N 42°04' W 070°30'3 9.7
2018-May-14 07:29N 42°07' W 070°30'5 9.4
2018-May-14 07:00N 42°11' W 070°33'510.6
2018-May-14 06:30N 42°15' W 070°38'611.3
2018-May-14 06:00N 42°19' W 070°43'511.3
2018-May-14 05:30N 42°23' W 070°49'510.2
2018-May-14 05:00N 42°22' W 070°56'5 9.0
2018-May-14 04:30N 42°21' W 071°02'2 3.9
2018-May-14 04:00N 42°23' W 071°02'1 1.4
2018-May-14 03:27N 42°24' W 071°01'1 3.1
2018-May-14 02:59N 42°23' W 071°03'0 0.1
2018-May-14 02:29N 42°23' W 071°03'0 0.0
2018-May-14 01:59N 42°23' W 071°03'0 0.0
2018-May-14 01:29N 42°23' W 071°03'0 0.0
2018-May-14 00:59N 42°23' W 071°03'0 0.0
2018-May-14 00:29N 42°23' W 071°03'0 0.0
2018-May-13 23:59N 42°23' W 071°03'0 0.0
2018-May-13 23:29N 42°23' W 071°03'0 0.0
2018-May-13 22:59N 42°23' W 071°03'0 0.0
2018-May-13 22:29N 42°23' W 071°03'0 0.0
2018-May-13 21:59N 42°23' W 071°03'0 0.0
2018-May-13 21:29N 42°23' W 071°03'0 0.0
2018-May-13 20:59N 42°23' W 071°03'0 0.0
2018-May-13 20:29N 42°23' W 071°03'0 0.0
2018-May-13 19:59N 42°23' W 071°03'0 0.0
2018-May-13 19:29N 42°23' W 071°03'0 0.0
2018-May-13 18:56N 42°23' W 071°03'0 0.0
2018-May-13 18:29N 42°23' W 071°03'0 0.0
2018-May-13 17:59N 42°23' W 071°03'0 0.0
2018-May-13 17:29N 42°23' W 071°03'0 0.0
2018-May-13 16:59N 42°23' W 071°03'0 0.0
2018-May-13 16:29N 42°23' W 071°03'0 0.0
2018-May-13 15:59N 42°23' W 071°03'0 0.0
2018-May-13 15:29N 42°23' W 071°03'0 0.0
2018-May-13 14:59N 42°23' W 071°03'0 0.0
2018-May-13 14:29N 42°23' W 071°03'0 0.0
2018-May-13 13:59N 42°23' W 071°03'0 0.0
2018-May-13 13:29N 42°23' W 071°03'0 0.0
2018-May-13 12:59N 42°23' W 071°03'0 0.0
2018-May-13 12:29N 42°23' W 071°03'0 0.0
2018-May-13 11:59N 42°23' W 071°03'0 0.0
2018-May-13 11:29N 42°23' W 071°03'0 0.0
2018-May-13 10:59N 42°23' W 071°03'0 0.0
2018-May-13 10:29N 42°23' W 071°03'0 0.0
2018-May-13 09:59N 42°23' W 071°03'0 0.0
2018-May-13 09:29N 42°23' W 071°03'0 0.0
2018-May-13 08:59N 42°23' W 071°03'0 0.0
2018-May-13 08:29N 42°23' W 071°03'0 0.0
2018-May-13 07:59N 42°23' W 071°03'0 0.0
2018-May-13 07:29N 42°23' W 071°03'0 0.0
2018-May-13 06:59N 42°23' W 071°03'0 0.0
2018-May-13 06:29N 42°23' W 071°03'0 0.0
2018-May-13 05:59N 42°23' W 071°03'0 0.0
2018-May-13 05:29N 42°23' W 071°03'0 0.0
2018-May-13 04:59N 42°23' W 071°03'0 0.0
2018-May-13 04:29N 42°23' W 071°03'0 0.0
2018-May-13 03:59N 42°23' W 071°03'0 0.0
2018-May-13 03:29N 42°23' W 071°03'0 0.0
2018-May-13 02:59N 42°23' W 071°03'0 0.0
2018-May-13 02:29N 42°23' W 071°03'0 0.0
2018-May-13 01:59N 42°23' W 071°03'0 0.0
2018-May-13 01:29N 42°23' W 071°03'0 0.0
2018-May-13 00:59N 42°23' W 071°03'0 0.0
2018-May-13 00:29N 42°23' W 071°03'0 0.0
2018-May-12 23:59N 42°23' W 071°03'0 0.0
2018-May-12 23:29N 42°23' W 071°03'0 0.0
2018-May-12 22:59N 42°23' W 071°03'0 0.0
2018-May-12 22:29N 42°23' W 071°03'0 0.0
2018-May-12 21:59N 42°23' W 071°03'0 0.0
2018-May-12 21:29N 42°23' W 071°03'0 0.0
2018-May-12 20:59N 42°23' W 071°03'0 0.0
2018-May-12 20:29N 42°23' W 071°03'0 0.0
2018-May-12 19:59N 42°23' W 071°03'0 0.0
2018-May-12 19:29N 42°23' W 071°03'0 0.0
2018-May-12 18:59N 42°23' W 071°03'0 0.0
2018-May-12 18:29N 42°23' W 071°03'0 0.0
2018-May-12 17:59N 42°23' W 071°03'0 0.0
2018-May-12 17:29N 42°23' W 071°03'0 0.0
2018-May-12 16:59N 42°23' W 071°03'0 0.0
2018-May-12 16:29N 42°23' W 071°03'0 0.0
2018-May-12 15:59N 42°23' W 071°03'0 0.0
2018-May-12 15:29N 42°23' W 071°03'1 1.2
2018-May-12 15:00N 42°23' W 071°02'1 1.6
2018-May-12 14:29N 42°24' W 071°01'1 1.6
2018-May-12 14:00N 42°23' W 071°02'2 3.5
2018-May-12 13:30N 42°21' W 071°02'4 6.9
2018-May-12 12:59N 42°20' W 070°58'0 0.5
2018-May-12 12:29N 42°20' W 070°58'0 0.0
2018-May-12 11:59N 42°20' W 070°58'0 0.0
2018-May-12 11:29N 42°20' W 070°58'0 0.0
2018-May-12 10:59N 42°20' W 070°58'0 0.0
2018-May-12 10:29N 42°21' W 070°58'0 0.1
2018-May-12 09:59N 42°21' W 070°58'0 0.1
2018-May-12 09:29N 42°21' W 070°58'0 0.1
2018-May-12 08:59N 42°21' W 070°58'0 0.1
2018-May-12 08:29N 42°21' W 070°58'0 0.0
2018-May-12 07:59N 42°21' W 070°58'0 0.1
2018-May-12 07:29N 42°20' W 070°58'0 0.1
2018-May-12 06:59N 42°20' W 070°58'0 0.1
2018-May-12 06:29N 42°20' W 070°58'0 0.0
2018-May-12 05:59N 42°20' W 070°58'0 0.0
2018-May-12 05:29N 42°20' W 070°58'0 0.0
2018-May-12 04:59N 42°20' W 070°58'0 0.0
2018-May-12 04:29N 42°20' W 070°58'0 0.0
2018-May-12 03:59N 42°20' W 070°58'0 0.0
2018-May-12 03:29N 42°20' W 070°58'0 0.0
2018-May-12 02:59N 42°20' W 070°58'0 0.0
2018-May-12 02:29N 42°20' W 070°58'0 0.0
2018-May-12 01:59N 42°20' W 070°58'0 0.0
2018-May-12 01:29N 42°20' W 070°58'0 0.0
2018-May-12 00:59N 42°20' W 070°58'0 0.0
2018-May-12 00:29N 42°20' W 070°58'0 0.1
2018-May-11 23:59N 42°20' W 070°58'0 0.1
2018-May-11 23:29N 42°20' W 070°58'0 0.0
2018-May-11 22:59N 42°20' W 070°58'0 0.2
2018-May-11 22:29N 42°21' W 070°58'0 0.1
2018-May-11 21:59N 42°21' W 070°58'0 0.1
2018-May-11 21:29N 42°21' W 070°58'0 0.0
2018-May-11 20:59N 42°21' W 070°58'0 0.0
2018-May-11 20:29N 42°21' W 070°58'0 0.0
2018-May-11 19:59N 42°21' W 070°58'0 0.0
2018-May-11 19:29N 42°21' W 070°58'0 0.1
2018-May-11 18:59N 42°21' W 070°58'0 0.1
2018-May-11 18:30N 42°21' W 070°58'0 0.1
2018-May-11 18:00N 42°21' W 070°58'0 0.1
2018-May-11 17:29N 42°20' W 070°58'0 0.0
2018-May-11 17:00N 42°20' W 070°58'0 0.0
2018-May-11 16:30N 42°20' W 070°58'0 0.0
2018-May-11 16:00N 42°20' W 070°58'0 0.0
2018-May-11 15:29N 42°20' W 070°58'0 0.0
2018-May-11 15:00N 42°20' W 070°58'0 0.0
2018-May-11 14:29N 42°20' W 070°58'0 0.0
2018-May-11 13:59N 42°20' W 070°58'0 0.0
2018-May-11 13:30N 42°20' W 070°58'0 0.0
2018-May-11 12:59N 42°20' W 070°58'0 0.0
2018-May-11 12:29N 42°20' W 070°58'0 0.0
2018-May-11 11:59N 42°20' W 070°58'0 0.1
2018-May-11 11:29N 42°20' W 070°58'0 0.2
2018-May-11 10:59N 42°21' W 070°58'0 1.0
2018-May-11 10:30N 42°20' W 070°57'4 8.8
2018-May-11 10:00N 42°23' W 070°53'510.6
2018-May-11 09:30N 42°21' W 070°46'510.6
2018-May-11 09:00N 42°18' W 070°41'510.6
2018-May-11 08:30N 42°14' W 070°36'5 9.9
2018-May-11 08:00N 42°10' W 070°32'5 9.6
2018-May-11 07:30N 42°05' W 070°30'89 8.0
2018-May-10 20:18N 41°14' W 072°08'3 9.7
2018-May-10 20:00N 41°14' W 072°12'5 9.9
2018-May-10 19:30N 41°13' W 072°18'5 9.7
2018-May-10 19:00N 41°11' W 072°24'510.1
2018-May-10 18:30N 41°10' W 072°31'510.9
2018-May-10 18:00N 41°11' W 072°38'610.9
2018-May-10 17:29N 41°12' W 072°46'  

Dump ship's entire track history